Terminal Aerodrome Forecast
Issued by NWS

Home | Current Version | Previous Version | Text Only | Print | Product List | Glossary On
Versions: 1 2 3 4 5 6 7 8 9 10 11 12 13 14 15 16 17 18 19 20
000
FTUS41 KGYX 170111 AAA
TAFMHT
TAF AMD
KMHT 170111Z 1701/1724 18005KT 3SM -SN BR BKN030 OVC050
     FM170300 00000KT 2SM -SN OVC015
     FM170600 00000KT 1SM -SN OVC007
     FM170900 00000KT 1/2SM SN VV005
     FM171600 VRB04KT 1 1/2SM -SN BR OVC007=

USA.gov is the U.S. government's official web portal to all federal, state and local government web resources and services.